Terminal Aerodrome Forecast
Issued by NWS

Home | Current Version | Previous Version | Text Only | Print | Product List | Glossary On
Versions: 1 2 3 4 5 6 7 8 9 10 11 12 13 14 15 16 17
000
FTUS41 KRNK 221725
TAFBCB
TAF
KBCB 221725Z 2218/2318 00000KT 5SM -DZ OVC004
      TEMPO 2218/2221 OVC015
     FM222100 00000KT P6SM OVC060
      TEMPO 2221/2223 2SM -RA OVC025
     FM222300 00000KT 3SM BR OVC060
     FM230500 00000KT 2SM BR OVC007
     FM231100 00000KT 1SM BR BKN035
     FM231400 VRB03KT P6SM BKN040
     FM231500 22004KT P6SM SCT040=

USA.gov is the U.S. government's official web portal to all federal, state and local government web resources and services.